Richmond South's Hourly Summary for Friday, July 6, 2018
Hour Temp
(f)
RH
(%)
Solar Rad.
(MJ/m2)
Rainfall
(in)
Wind
(mph)
7/6/2018 12:00 AM 78 62 0 0 1.87
7/6/2018 1:00 AM 75 81 0 0 0.85
7/6/2018 2:00 AM 74 90 0 0 0.55
7/6/2018 3:00 AM 73 92 0 0 0
7/6/2018 4:00 AM 73 93 0 0 0.36
7/6/2018 5:00 AM 73 92 0 0 0.89
7/6/2018 6:00 AM 73 92 0 0 1.36
7/6/2018 7:00 AM 73 91 0.03 0 1.52
7/6/2018 8:00 AM 75 86 0.25 0 3.24
7/6/2018 9:00 AM 78 78 0.76 0 3.89
7/6/2018 10:00 AM 81 68 1.33 0 4.94
7/6/2018 11:00 AM 85 63 2.43 0 4.44
7/6/2018 12:00 PM 87 58 2.92 0 4.39
7/6/2018 1:00 PM 88 52 2.9 0 5.14
7/6/2018 2:00 PM 89 51 2.85 0 5.29
7/6/2018 3:00 PM 89 53 3.16 0 6.54
7/6/2018 4:00 PM 90 52 2.76 0 5.91
7/6/2018 5:00 PM 89 50 1.75 0 4.12
7/6/2018 6:00 PM 81 58 0.43 0 6.96
7/6/2018 7:00 PM 81 72 0.24 0 1.89
7/6/2018 8:00 PM 79 81 0.07 0 1.57
7/6/2018 9:00 PM 77 89 0.01 0 0.03
7/6/2018 10:00 PM 77 92 0 0 0
7/6/2018 11:00 PM 76 94 0 0 0.07
Data Summary 79 74 21.89 0.00 2.74